KNRB/NRB METAR and TAF weather

Enter ICAO airport designator
Station Type Date Time Source
KNRB METAR 2019/10/23 19:52 UTC NOAA

KNRB 231952Z 01010KT 10SM FEW200 SCT250 23/12 A3011 RMK AO2 SLP194 T02280117


Station Type Date Time Source
KNRB Decoded METAR 2019/10/23 19:52 UTC NOAA

MAYPORT NAVAL AIR FACILITY, FL, United States (KNRB) 30-24N 81-25W 4M
Oct 23, 2019 - 03:52 PM EDT / 2019.10.23 1952 UTC
Wind: from the N (010 degrees) at 12 MPH (10 KT):0
Visibility: 10 mile(s):0
Sky conditions: partly cloudy
Temperature: 73.0 F (22.8 C)
Dew Point: 53.1 F (11.7 C)
Relative Humidity: 49%
Pressure (altimeter): 30.11 in. Hg (1019 hPa)
ob: KNRB 231952Z 01010KT 10SM FEW200 SCT250 23/12 A3011 RMK AO2 SLP194 T02280117
cycle: 20

Station Type Date Time Source
KNRB TAF 2019/10/23 15:55 UTC NOAA

TAF KNRB 2315/2415 02013KT 9999 SCT250 QNH3009INS
FM240200 06006KT 9999 SCT030 SCT250 QNH3011INS
FM240800 09008KT 9999 BKN030 BKN250 QNH3008INS T26/2319Z T18/2310Z FN20076

Example: see airport list